Avno, Denmark

7:36 PM CEST on September 17, 2014 (GMT +0200)
Avno | Change Station
CLOSE
Current Station
Airport
Location: Avno,
Elevation: 13 ft
Nearby Weather Stations

Elev 13 ft 55.08 °N, 11.78 °E | Updated 16 minutes ago

Clear
Clear
64 °F
Feels Like 64 °F
N
7
Wind Variable Wind from ENE

Today
High -- | Low -- °F
--% Chance of Precip.
Yesterday
High -- | Low -- °F
Precip. -- in
6:48 AM 7:25 PM
Waning Crescent, 34% visible
Pressure 30.15 in
Visibility 6.2 miles
Clouds
Dew Point 54 °F
Humidity 68%
Rainfall 0.00 in
Snow Depth Not available.
UV Not available.
Pollen Not available.
Air Quality Not available.
Flu Activity Not available.
METAR EKAV 171720Z AUTO 07006KT 360V130 9999NDV NCD 18/12 Q1021

More Conditions Fewer Conditions

Pressure 30.15 in
Visibility 6.2 miles
Clouds
Dew Point 54 °F
Humidity 68%
Rainfall 0.00 in
Snow Depth Not available.
UV Not available.
Pollen Not available.
Air Quality Not available.
Flu Activity Not available.
METAR EKAV 171720Z AUTO 07006KT 360V130 9999NDV NCD 18/12 Q1021

More Conditions Fewer Conditions

10-Day Weather Forecast

Almanac

Astronomy

Sep. 17, 2014 Rise Set
Actual Time 6:48 AM CEST 7:25 PM CEST
Civil Twilight 6:11 AM CEST 8:01 PM CEST
Nautical Twilight 5:27 AM CEST 8:45 PM CEST
Astronomical Twilight 4:40 AM CEST 9:32 PM CEST
Moon No Moon Rise 4:04 PM CEST
Length of Visible Light 13h 49m
Length of Day
12h 36m
Tomorrow will be 4m 27s shorter.
Waning Crescent, 34% of the Moon is Illuminated
Today
Waning Crescent
Sep 24
New
Oct 1
First Quarter
Oct 8
Full
Oct 15
Last Quarter

Today's Extremes

Country Highs Country Lows

Community

WunderPhotos

Upload Photos

1,754,109 photos uploaded!

Nearby

Snow Depth

Not available.

Earthquake Activity

City Distance Mag. Time & Date
No recent earthquake activity has been reported nearby.
Minimum magnitude displayed is 2.5.

Coastal Water Temperatures

Place Temperature
No Stations Reporting

Nearby Weather Stations